Time;durP1;ratioP1;P1;durP2;ratioP2;P2;SDS_P1;SDS_P2;PMS_P1;PMS_P2;Temp;Humidity;BMP_temperature;BMP_pressure;BME280_temperature;BME280_humidity;BME280_pressure;Samples;Min_cycle;Max_cycle;Signal;HPM_P1;HPM_P2
2021/11/23 00:01:06;;;;;;;38.00;17.23;;;;;;;;;;5072489;28;20050;-57
2021/11/23 00:03:32;;;;;;;49.40;18.55;;;;;;;;;;5070133;28;20458;-57
2021/11/23 00:05:59;;;;;;;37.90;15.95;;;;;;;;;;5070432;28;20046;-57
2021/11/23 00:08:25;;;;;;;34.83;17.70;;;;;;;;;;5070472;28;20052;-57
2021/11/23 00:10:52;;;;;;;33.10;13.25;;;;;;;;;;5054484;28;20061;-57
2021/11/23 00:13:18;;;;;;;23.77;12.07;;;;;;;;;;5072718;28;20040;-57
2021/11/23 00:15:45;;;;;;;46.20;16.92;;;;;;;;;;5068870;28;20052;-57
2021/11/23 00:18:12;;;;;;;25.92;13.75;;;;;;;;;;5069762;28;20076;-57
2021/11/23 00:20:40;;;;;;;27.55;13.60;;;;;;;;;;5069097;28;20041;-56
2021/11/23 00:23:06;;;;;;;37.45;14.48;;;;;;;;;;5070301;28;20098;-57
2021/11/23 00:25:33;;;;;;;37.78;15.23;;;;;;;;;;5071090;28;20055;-57
2021/11/23 00:28:00;;;;;;;28.90;13.18;;;;;;;;;;5070977;28;20041;-57
2021/11/23 00:30:27;;;;;;;32.92;16.80;;;;;;;;;;5070564;28;20049;-57
2021/11/23 00:32:54;;;;;;;26.92;11.02;;;;;;;;;;5069971;28;20048;-57
2021/11/23 00:35:21;;;;;;;30.08;13.50;;;;;;;;;;5067149;28;20432;-57
2021/11/23 00:37:50;;;;;;;15.07;9.32;;;;;;;;;;5069766;28;20053;-57
2021/11/23 00:40:16;;;;;;;30.98;14.00;;;;;;;;;;5071566;28;20044;-57
2021/11/23 00:42:43;;;;;;;29.67;14.15;;;;;;;;;;5069883;28;20044;-58
2021/11/23 00:45:10;;;;;;;26.23;13.65;;;;;;;;;;5069949;28;20044;-57
2021/11/23 00:47:37;;;;;;;37.83;14.65;;;;;;;;;;5069895;28;20573;-57
2021/11/23 00:50:04;;;;;;;26.45;11.27;;;;;;;;;;5069944;28;20415;-57
2021/11/23 00:52:30;;;;;;;22.77;11.13;;;;;;;;;;5071473;28;20041;-57
2021/11/23 00:54:57;;;;;;;30.95;10.30;;;;;;;;;;5069637;28;20045;-57
2021/11/23 00:57:23;;;;;;;30.58;10.80;;;;;;;;;;5069718;28;20043;-57
2021/11/23 00:59:49;;;;;;;30.67;12.82;;;;;;;;;;5068205;28;20453;-57
2021/11/23 01:02:16;;;;;;;23.17;10.95;;;;;;;;;;5070164;28;20056;-57
2021/11/23 01:04:45;;;;;;;27.70;11.88;;;;;;;;;;5069947;28;20492;-57
2021/11/23 01:07:11;;;;;;;27.45;13.07;;;;;;;;;;5071957;28;20408;-57
2021/11/23 01:09:38;;;;;;;33.83;11.95;;;;;;;;;;5069559;28;20618;-58
2021/11/23 01:12:05;;;;;;;26.48;11.75;;;;;;;;;;5069446;28;20098;-57
2021/11/23 01:14:31;;;;;;;29.25;12.07;;;;;;;;;;5069392;28;20082;-57
2021/11/23 01:16:58;;;;;;;22.95;8.70;;;;;;;;;;5069486;28;20072;-57
2021/11/23 01:19:25;;;;;;;13.77;7.32;;;;;;;;;;5072375;28;20044;-57
2021/11/23 01:21:51;;;;;;;21.33;10.90;;;;;;;;;;5068998;28;20119;-57
2021/11/23 01:24:17;;;;;;;15.75;8.93;;;;;;;;;;5069712;28;20488;-55
2021/11/23 01:26:44;;;;;;;19.35;10.10;;;;;;;;;;5069545;28;20049;-57
2021/11/23 01:29:11;;;;;;;13.05;7.38;;;;;;;;;;5069404;28;20043;-57
2021/11/23 01:31:38;;;;;;;16.48;8.75;;;;;;;;;;5070555;28;20400;-57
2021/11/23 01:34:04;;;;;;;37.17;13.63;;;;;;;;;;5069012;28;20044;-56
2021/11/23 01:36:31;;;;;;;26.50;9.60;;;;;;;;;;5066168;28;20072;-56
2021/11/23 01:38:57;;;;;;;22.77;11.73;;;;;;;;;;5068510;28;20041;-57
2021/11/23 01:41:24;;;;;;;18.55;10.18;;;;;;;;;;5072954;28;20047;-56
2021/11/23 01:43:51;;;;;;;21.75;10.68;;;;;;;;;;5072881;28;20132;-57
2021/11/23 01:46:18;;;;;;;24.55;12.90;;;;;;;;;;5075110;28;20075;-56
2021/11/23 01:48:44;;;;;;;30.48;14.13;;;;;;;;;;5073150;28;20080;-57
2021/11/23 01:51:11;;;;;;;17.70;7.43;;;;;;;;;;5073191;28;20044;-57
2021/11/23 01:53:38;;;;;;;17.73;8.85;;;;;;;;;;5073396;28;20052;-57
2021/11/23 01:56:04;;;;;;;21.35;11.25;;;;;;;;;;5073657;28;20044;-57
2021/11/23 01:58:31;;;;;;;26.48;12.13;;;;;;;;;;5074207;28;20048;-57
2021/11/23 02:00:58;;;;;;;17.23;9.90;;;;;;;;;;5074408;28;20483;-57
2021/11/23 02:03:24;;;;;;;24.17;9.27;;;;;;;;;;5072065;28;20040;-58
2021/11/23 02:05:50;;;;;;;26.33;11.35;;;;;;;;;;5073295;28;20407;-58
2021/11/23 02:08:17;;;;;;;22.65;6.65;;;;;;;;;;5073236;28;20121;-57
2021/11/23 02:10:43;;;;;;;11.88;6.38;;;;;;;;;;5073355;28;20045;-57
2021/11/23 02:13:10;;;;;;;31.13;11.93;;;;;;;;;;5073630;28;20064;-55
2021/11/23 02:15:37;;;;;;;11.90;7.07;;;;;;;;;;5073053;28;20052;-57
2021/11/23 02:18:13;;;;;;;10.65;4.03;;;;;;;;;;5071377;28;20055;-59
2021/11/23 02:20:40;;;;;;;13.13;6.47;;;;;;;;;;5073052;28;20064;-57
2021/11/23 02:23:06;;;;;;;19.20;9.70;;;;;;;;;;5072952;28;20067;-57
2021/11/23 02:25:33;;;;;;;9.60;4.40;;;;;;;;;;5073867;28;20056;-57
2021/11/23 02:28:00;;;;;;;17.52;10.85;;;;;;;;;;5073873;28;20076;-58
2021/11/23 02:30:26;;;;;;;14.20;5.90;;;;;;;;;;5072637;28;20048;-58
2021/11/23 02:32:53;;;;;;;24.42;9.82;;;;;;;;;;5072696;28;20110;-58
2021/11/23 02:35:21;;;;;;;21.20;10.00;;;;;;;;;;5072793;28;20044;-57
2021/11/23 02:37:50;;;;;;;12.65;7.43;;;;;;;;;;5072796;28;20052;-57
2021/11/23 02:40:17;;;;;;;19.25;10.35;;;;;;;;;;5072983;28;20041;-57
2021/11/23 02:42:44;;;;;;;16.30;8.63;;;;;;;;;;5072420;28;20106;-57
2021/11/23 02:45:11;;;;;;;14.95;9.80;;;;;;;;;;5071201;28;20112;-57
2021/11/23 02:47:38;;;;;;;20.70;10.23;;;;;;;;;;5072350;28;20064;-57
2021/11/23 02:50:06;;;;;;;21.75;8.52;;;;;;;;;;5071236;28;20463;-57
2021/11/23 02:52:32;;;;;;;13.00;6.63;;;;;;;;;;5072654;28;20048;-57
2021/11/23 02:55:00;;;;;;;23.38;8.70;;;;;;;;;;5073416;28;20082;-57
2021/11/23 02:57:27;;;;;;;17.65;9.02;;;;;;;;;;5070803;28;20056;-57
2021/11/23 02:59:54;;;;;;;18.92;7.68;;;;;;;;;;5072107;28;20044;-57
2021/11/23 03:02:21;;;;;;;25.52;9.68;;;;;;;;;;5072110;28;20079;-57
2021/11/23 03:04:54;;;;;;;15.40;5.72;;;;;;;;;;5072212;28;20401;-57
2021/11/23 03:07:21;;;;;;;16.20;8.55;;;;;;;;;;5074346;28;20055;-57
2021/11/23 03:09:48;;;;;;;18.30;7.85;;;;;;;;;;5072146;28;20041;-57
2021/11/23 03:12:16;;;;;;;7.78;4.07;;;;;;;;;;5071651;28;20059;-58
2021/11/23 03:14:42;;;;;;;13.35;7.00;;;;;;;;;;5071415;28;20504;-57
2021/11/23 03:17:09;;;;;;;9.07;4.40;;;;;;;;;;5070121;28;20123;-57
2021/11/23 03:19:36;;;;;;;22.38;8.93;;;;;;;;;;5071874;28;20531;-58
2021/11/23 03:22:02;;;;;;;16.25;8.55;;;;;;;;;;5072784;28;20048;-57
2021/11/23 03:24:29;;;;;;;17.50;7.95;;;;;;;;;;5071142;28;20857;-57
2021/11/23 03:26:56;;;;;;;9.52;4.20;;;;;;;;;;5071490;28;20075;-58
2021/11/23 03:29:23;;;;;;;20.45;9.15;;;;;;;;;;5069805;28;20089;-57
2021/11/23 03:31:49;;;;;;;18.88;9.45;;;;;;;;;;5069863;28;20151;-57
2021/11/23 03:34:16;;;;;;;22.80;7.15;;;;;;;;;;5073346;28;20531;-57
2021/11/23 03:36:43;;;;;;;15.45;8.20;;;;;;;;;;5069900;28;20047;-57
2021/11/23 03:39:09;;;;;;;7.80;6.03;;;;;;;;;;5071257;28;20044;-59
2021/11/23 03:41:36;;;;;;;20.10;9.98;;;;;;;;;;5068260;28;20520;-57
2021/11/23 03:44:03;;;;;;;13.68;7.03;;;;;;;;;;5062980;28;20043;-57
2021/11/23 03:46:30;;;;;;;7.80;5.13;;;;;;;;;;5072715;28;20106;-57
2021/11/23 03:48:56;;;;;;;16.83;8.75;;;;;;;;;;5071937;28;20083;-57
2021/11/23 03:51:23;;;;;;;16.38;8.25;;;;;;;;;;5071078;28;20101;-57
2021/11/23 03:53:49;;;;;;;17.27;8.93;;;;;;;;;;5070904;28;20044;-57
2021/11/23 03:56:16;;;;;;;11.15;5.93;;;;;;;;;;5071223;28;20059;-57
2021/11/23 03:58:43;;;;;;;17.67;7.47;;;;;;;;;;5071289;28;20048;-57
2021/11/23 04:01:09;;;;;;;21.90;7.75;;;;;;;;;;5073080;28;20093;-57
2021/11/23 04:03:37;;;;;;;11.30;6.85;;;;;;;;;;5069915;28;20512;-57
2021/11/23 04:06:04;;;;;;;9.68;5.55;;;;;;;;;;5071001;28;20051;-57
2021/11/23 04:08:31;;;;;;;19.05;7.63;;;;;;;;;;5070780;28;20105;-57
2021/11/23 04:10:58;;;;;;;22.02;9.73;;;;;;;;;;5070840;28;20076;-57
2021/11/23 04:13:24;;;;;;;21.42;6.50;;;;;;;;;;5072788;28;20123;-56
2021/11/23 04:15:51;;;;;;;19.58;6.70;;;;;;;;;;5071463;28;20048;-56
2021/11/23 04:18:18;;;;;;;15.80;6.53;;;;;;;;;;5070545;28;20044;-57
2021/11/23 04:20:44;;;;;;;15.25;7.70;;;;;;;;;;5070765;28;20428;-57
2021/11/23 04:23:10;;;;;;;18.88;8.10;;;;;;;;;;5070556;28;20032;-55
2021/11/23 04:25:37;;;;;;;14.48;7.65;;;;;;;;;;5071305;28;20519;-57
2021/11/23 04:28:04;;;;;;;14.77;7.18;;;;;;;;;;5072639;28;20106;-57
2021/11/23 04:30:30;;;;;;;19.52;7.38;;;;;;;;;;5070594;28;20446;-57
2021/11/23 04:32:57;;;;;;;11.30;5.22;;;;;;;;;;5070451;28;20041;-57
2021/11/23 04:35:23;;;;;;;9.00;6.20;;;;;;;;;;5067328;28;20071;-56
2021/11/23 04:37:50;;;;;;;13.93;6.22;;;;;;;;;;5059493;28;20504;-56
2021/11/23 04:40:17;;;;;;;12.70;5.15;;;;;;;;;;5063776;28;20048;-57
2021/11/23 04:42:44;;;;;;;11.07;5.00;;;;;;;;;;5062876;28;20063;-57
2021/11/23 04:45:11;;;;;;;13.40;6.22;;;;;;;;;;5064409;28;20052;-56
2021/11/23 04:47:38;;;;;;;9.40;4.70;;;;;;;;;;5060668;28;20496;-57
2021/11/23 04:50:06;;;;;;;7.88;3.63;;;;;;;;;;5062947;28;20192;-56
2021/11/23 04:52:32;;;;;;;7.72;4.38;;;;;;;;;;5071211;28;20052;-56
2021/11/23 04:54:59;;;;;;;9.82;5.03;;;;;;;;;;5070268;28;20080;-56
2021/11/23 04:57:25;;;;;;;6.40;4.35;;;;;;;;;;5068824;28;20155;-57
2021/11/23 04:59:52;;;;;;;7.15;4.57;;;;;;;;;;5064173;28;20408;-56
2021/11/23 05:02:19;;;;;;;8.75;4.47;;;;;;;;;;5070450;28;20076;-57
2021/11/23 05:04:46;;;;;;;7.55;4.25;;;;;;;;;;5057173;28;20056;-57
2021/11/23 05:07:13;;;;;;;11.38;5.03;;;;;;;;;;5063667;28;20102;-56
2021/11/23 05:09:39;;;;;;;8.05;4.40;;;;;;;;;;5060706;28;20088;-57
2021/11/23 05:12:06;;;;;;;6.22;3.85;;;;;;;;;;5064873;28;20049;-56
2021/11/23 05:14:32;;;;;;;11.18;4.78;;;;;;;;;;5071050;28;20515;-56
2021/11/23 05:16:59;;;;;;;7.22;3.13;;;;;;;;;;5069764;28;20087;-57
2021/11/23 05:19:25;;;;;;;3.35;2.17;;;;;;;;;;5069748;28;20056;-57
2021/11/23 05:21:51;;;;;;;9.55;3.60;;;;;;;;;;5068336;28;20515;-56
2021/11/23 05:24:18;;;;;;;11.25;3.95;;;;;;;;;;5072348;28;20519;-56
2021/11/23 05:26:44;;;;;;;4.75;3.22;;;;;;;;;;5069742;28;20385;-56
2021/11/23 05:29:11;;;;;;;6.03;3.15;;;;;;;;;;5074347;28;20419;-56
2021/11/23 05:31:37;;;;;;;6.53;2.88;;;;;;;;;;5068845;28;20068;-55
2021/11/23 05:34:03;;;;;;;4.70;2.75;;;;;;;;;;5062249;28;20056;-55
2021/11/23 05:36:30;;;;;;;4.57;3.17;;;;;;;;;;5072564;28;20123;-55
2021/11/23 05:38:56;;;;;;;7.45;3.83;;;;;;;;;;5070001;28;20146;-55
2021/11/23 05:41:22;;;;;;;7.03;3.17;;;;;;;;;;5073382;28;20056;-55
2021/11/23 05:43:49;;;;;;;6.95;3.80;;;;;;;;;;5064327;28;20082;-55
2021/11/23 05:46:15;;;;;;;8.50;2.80;;;;;;;;;;5069923;28;20109;-55
2021/11/23 05:48:42;;;;;;;6.90;3.33;;;;;;;;;;5064730;28;20558;-54
2021/11/23 05:51:08;;;;;;;9.20;3.58;;;;;;;;;;5080521;28;20041;-55
2021/11/23 05:53:36;;;;;;;13.00;4.55;;;;;;;;;;5079617;28;20082;-55
2021/11/23 05:56:03;;;;;;;9.18;4.53;;;;;;;;;;5077947;28;20128;-55
2021/11/23 05:58:30;;;;;;;5.03;3.03;;;;;;;;;;5073666;28;20044;-55
2021/11/23 06:00:56;;;;;;;11.65;3.10;;;;;;;;;;5071453;28;20075;-55
2021/11/23 06:03:22;;;;;;;8.10;3.83;;;;;;;;;;5070641;28;20381;-56
2021/11/23 06:05:49;;;;;;;7.80;3.88;;;;;;;;;;5071135;28;20086;-55
2021/11/23 06:08:16;;;;;;;7.40;3.10;;;;;;;;;;5068835;28;21812;-55
2021/11/23 06:10:42;;;;;;;6.82;2.53;;;;;;;;;;5069781;28;20048;-56
2021/11/23 06:13:11;;;;;;;3.67;2.20;;;;;;;;;;5056940;28;20044;-56
2021/11/23 06:15:38;;;;;;;5.82;2.63;;;;;;;;;;5057835;28;20084;-55
2021/11/23 06:18:08;;;;;;;9.00;3.15;;;;;;;;;;5058599;28;20619;-56
2021/11/23 06:20:34;;;;;;;5.63;2.33;;;;;;;;;;5070673;28;20087;-56
2021/11/23 06:23:02;;;;;;;3.10;1.67;;;;;;;;;;5071136;28;20081;-56
2021/11/23 06:25:28;;;;;;;4.78;3.13;;;;;;;;;;5073783;28;20078;-56
2021/11/23 06:27:54;;;;;;;4.55;2.40;;;;;;;;;;5070711;28;20403;-55
2021/11/23 06:30:22;;;;;;;5.88;3.00;;;;;;;;;;5072135;28;20072;-56
2021/11/23 06:32:48;;;;;;;5.68;2.28;;;;;;;;;;5072379;28;20133;-56
2021/11/23 06:35:15;;;;;;;4.25;2.45;;;;;;;;;;5072098;28;20154;-56
2021/11/23 06:37:42;;;;;;;3.05;1.48;;;;;;;;;;5072644;28;20051;-56
2021/11/23 06:40:10;;;;;;;4.40;2.50;;;;;;;;;;5074161;28;20040;-55
2021/11/23 06:42:37;;;;;;;1.70;1.38;;;;;;;;;;5071991;28;20503;-57
2021/11/23 06:45:04;;;;;;;4.97;2.17;;;;;;;;;;5070657;28;20079;-56
2021/11/23 06:47:30;;;;;;;6.82;3.10;;;;;;;;;;5071972;28;20094;-56
2021/11/23 06:49:56;;;;;;;8.15;2.65;;;;;;;;;;5070377;28;20044;-56
2021/11/23 06:52:24;;;;;;;8.40;3.03;;;;;;;;;;5073090;28;20088;-56
2021/11/23 06:54:51;;;;;;;7.72;3.53;;;;;;;;;;5072157;28;20056;-56
2021/11/23 06:57:17;;;;;;;4.22;2.05;;;;;;;;;;5071844;28;20044;-56
2021/11/23 06:59:47;;;;;;;2.92;1.55;;;;;;;;;;5071915;28;20099;-55
2021/11/23 07:02:13;;;;;;;4.20;2.30;;;;;;;;;;5071801;28;20393;-54
2021/11/23 07:04:40;;;;;;;3.05;1.58;;;;;;;;;;5071917;28;20051;-55
2021/11/23 07:07:09;;;;;;;4.15;2.28;;;;;;;;;;5073637;28;20052;-55
2021/11/23 07:09:35;;;;;;;3.30;2.17;;;;;;;;;;5071479;28;20044;-55
2021/11/23 07:12:02;;;;;;;4.97;2.97;;;;;;;;;;5068140;28;20059;-56
2021/11/23 07:14:28;;;;;;;2.53;1.90;;;;;;;;;;5070397;28;20086;-55
2021/11/23 07:16:55;;;;;;;4.43;2.38;;;;;;;;;;5071332;28;20040;-56
2021/11/23 07:19:21;;;;;;;6.40;2.67;;;;;;;;;;5073059;28;20064;-56
2021/11/23 07:21:48;;;;;;;1.95;1.02;;;;;;;;;;5070844;28;20546;-56
2021/11/23 07:24:14;;;;;;;6.47;2.85;;;;;;;;;;5069339;28;20111;-56
2021/11/23 07:26:41;;;;;;;7.85;2.97;;;;;;;;;;5070984;28;20068;-56
2021/11/23 07:29:08;;;;;;;8.65;2.47;;;;;;;;;;5069378;28;20065;-56
2021/11/23 07:31:35;;;;;;;11.23;2.83;;;;;;;;;;5071819;28;20045;-56
2021/11/23 07:34:01;;;;;;;4.22;2.83;;;;;;;;;;5069679;28;20442;-56
2021/11/23 07:36:28;;;;;;;5.88;2.50;;;;;;;;;;5069129;28;20075;-56
2021/11/23 07:38:55;;;;;;;4.13;2.65;;;;;;;;;;5066542;28;20043;-56
2021/11/23 07:41:21;;;;;;;5.03;2.63;;;;;;;;;;5067120;28;20052;-56
2021/11/23 07:43:49;;;;;;;4.00;2.42;;;;;;;;;;5069776;28;20047;-56
2021/11/23 07:46:16;;;;;;;5.63;2.35;;;;;;;;;;5060706;28;20038;-56
2021/11/23 07:48:42;;;;;;;5.38;2.65;;;;;;;;;;5066261;28;20048;-55
2021/11/23 07:51:09;;;;;;;6.05;2.35;;;;;;;;;;5058528;28;20079;-54
2021/11/23 07:53:35;;;;;;;3.22;1.33;;;;;;;;;;5063524;28;20044;-55
2021/11/23 07:56:01;;;;;;;6.85;3.33;;;;;;;;;;5066290;28;20084;-56
2021/11/23 07:58:29;;;;;;;4.45;2.40;;;;;;;;;;5059252;28;20064;-57
2021/11/23 08:00:55;;;;;;;4.53;2.60;;;;;;;;;;5070058;28;20529;-57
2021/11/23 08:03:21;;;;;;;5.65;2.70;;;;;;;;;;5059220;28;20052;-57
2021/11/23 08:05:48;;;;;;;8.93;4.25;;;;;;;;;;5065553;28;20051;-56
2021/11/23 08:08:15;;;;;;;5.88;1.85;;;;;;;;;;5067431;28;20732;-57
2021/11/23 08:10:41;;;;;;;5.93;2.92;;;;;;;;;;5066380;28;20048;-56
2021/11/23 08:13:08;;;;;;;4.20;2.13;;;;;;;;;;5059326;28;20095;-57
2021/11/23 08:15:36;;;;;;;2.85;1.67;;;;;;;;;;5064896;28;20045;-57
2021/11/23 08:18:03;;;;;;;9.73;2.10;;;;;;;;;;5064314;28;20736;-57
2021/11/23 08:20:30;;;;;;;7.35;2.85;;;;;;;;;;5064613;28;20072;-56
2021/11/23 08:22:56;;;;;;;6.18;3.35;;;;;;;;;;5069132;28;20534;-56
2021/11/23 08:25:23;;;;;;;8.00;3.50;;;;;;;;;;5064128;28;20037;-54
2021/11/23 08:27:49;;;;;;;8.88;3.80;;;;;;;;;;5069599;28;20450;-54
2021/11/23 08:30:16;;;;;;;6.03;2.63;;;;;;;;;;5068283;28;20045;-55
2021/11/23 08:32:42;;;;;;;14.35;4.88;;;;;;;;;;5069511;28;20045;-55
2021/11/23 08:35:09;;;;;;;5.10;2.15;;;;;;;;;;5066020;28;20068;-54
2021/11/23 08:37:36;;;;;;;9.85;3.45;;;;;;;;;;5062221;28;20037;-53
2021/11/23 08:40:03;;;;;;;4.88;1.88;;;;;;;;;;5069108;28;20109;-54
2021/11/23 08:42:30;;;;;;;4.45;2.40;;;;;;;;;;5061676;28;20048;-53
2021/11/23 08:44:57;;;;;;;4.90;2.25;;;;;;;;;;5065191;28;20048;-54
2021/11/23 08:47:23;;;;;;;6.53;2.13;;;;;;;;;;5069853;28;20064;-53
2021/11/23 08:49:50;;;;;;;6.00;2.92;;;;;;;;;;5066274;28;20041;-55
2021/11/23 08:52:16;;;;;;;6.00;2.85;;;;;;;;;;5075606;28;20048;-54
2021/11/23 08:54:43;;;;;;;8.82;3.47;;;;;;;;;;5072544;28;20064;-55
2021/11/23 08:57:10;;;;;;;4.35;2.08;;;;;;;;;;5065132;28;20048;-55
2021/11/23 08:59:40;;;;;;;3.88;2.30;;;;;;;;;;5073851;28;20118;-54
2021/11/23 09:02:06;;;;;;;7.38;3.92;;;;;;;;;;5064911;28;20488;-56
2021/11/23 09:04:34;;;;;;;8.75;3.65;;;;;;;;;;5065916;28;20205;-55
2021/11/23 09:07:03;;;;;;;6.55;3.30;;;;;;;;;;5069977;28;20048;-56
2021/11/23 09:09:31;;;;;;;9.80;2.17;;;;;;;;;;5066278;28;20131;-56
2021/11/23 09:12:01;;;;;;;7.25;3.13;;;;;;;;;;5069127;28;20075;-56
2021/11/23 09:14:28;;;;;;;5.82;3.55;;;;;;;;;;5066942;28;20411;-56
2021/11/23 09:16:54;;;;;;;9.73;3.72;;;;;;;;;;5069874;28;20515;-56
2021/11/23 09:19:21;;;;;;;5.82;3.20;;;;;;;;;;5063010;28;20124;-56
2021/11/23 09:21:47;;;;;;;6.85;2.88;;;;;;;;;;5065464;28;20048;-56
2021/11/23 09:24:13;;;;;;;6.78;3.35;;;;;;;;;;5061398;28;20520;-57
2021/11/23 09:26:40;;;;;;;5.60;3.42;;;;;;;;;;5069877;28;20492;-56
2021/11/23 09:29:06;;;;;;;7.65;5.55;;;;;;;;;;5072182;28;20048;-56
2021/11/23 09:31:33;;;;;;;12.93;4.25;;;;;;;;;;5072331;28;20182;-57
2021/11/23 09:33:59;;;;;;;4.93;3.33;;;;;;;;;;5053634;28;20045;-57
2021/11/23 09:36:26;;;;;;;5.57;3.10;;;;;;;;;;5072967;28;20048;-55
2021/11/23 09:38:52;;;;;;;4.97;2.95;;;;;;;;;;5073869;28;20059;-56
2021/11/23 09:41:18;;;;;;;8.63;4.38;;;;;;;;;;5074135;28;20079;-55
2021/11/23 09:43:45;;;;;;;13.35;5.28;;;;;;;;;;5073372;28;20048;-56
2021/11/23 09:46:11;;;;;;;11.23;4.55;;;;;;;;;;5063116;28;20512;-56
2021/11/23 09:48:42;;;;;;;9.50;4.78;;;;;;;;;;5065464;28;20063;-56
2021/11/23 09:51:16;;;;;;;9.27;5.30;;;;;;;;;;5092687;28;20033;-56
2021/11/23 09:53:43;;;;;;;5.20;3.85;;;;;;;;;;5060491;28;20479;-56
2021/11/23 09:56:09;;;;;;;9.02;4.28;;;;;;;;;;5065983;28;20059;-56
2021/11/23 09:58:35;;;;;;;9.20;3.42;;;;;;;;;;5065695;28;20084;-56
2021/11/23 10:01:04;;;;;;;8.15;5.15;;;;;;;;;;5074307;28;20492;-56
2021/11/23 10:03:32;;;;;;;9.90;5.80;;;;;;;;;;5073611;28;20071;-56
2021/11/23 10:06:04;;;;;;;10.55;5.63;;;;;;;;;;5073817;28;20048;-57
2021/11/23 10:08:31;;;;;;;9.80;4.53;;;;;;;;;;5072871;28;20079;-57
2021/11/23 10:10:57;;;;;;;13.13;5.22;;;;;;;;;;5072113;28;20128;-57
2021/11/23 10:13:37;;;;;;;12.15;5.93;;;;;;;;;;5073591;28;20242;-57
2021/11/23 10:16:04;;;;;;;8.43;4.43;;;;;;;;;;5073833;28;20075;-58
2021/11/23 10:18:30;;;;;;;12.55;6.00;;;;;;;;;;5073046;28;20053;-57
2021/11/23 10:20:58;;;;;;;13.02;6.40;;;;;;;;;;5073170;28;20053;-57
2021/11/23 10:23:38;;;;;;;7.65;6.18;;;;;;;;;;5068528;28;20076;-57
2021/11/23 10:26:24;;;;;;;11.30;6.57;;;;;;;;;;5063650;28;20080;-55
2021/11/23 10:28:53;;;;;;;6.22;4.22;;;;;;;;;;5057288;28;20503;-57
2021/11/23 10:31:21;;;;;;;11.60;5.63;;;;;;;;;;5073320;28;20075;-59
2021/11/23 10:33:55;;;;;;;12.45;7.20;;;;;;;;;;5071193;28;20041;-59
2021/11/23 10:36:22;;;;;;;7.70;4.95;;;;;;;;;;5057127;28;20060;-61
2021/11/23 10:38:50;;;;;;;9.40;4.88;;;;;;;;;;5073671;28;20545;-61
2021/11/23 10:41:16;;;;;;;13.10;7.07;;;;;;;;;;5072765;28;20048;-61
2021/11/23 10:43:44;;;;;;;12.93;7.57;;;;;;;;;;5072536;28;20076;-61
2021/11/23 10:46:15;;;;;;;11.95;6.82;;;;;;;;;;5073011;28;20416;-61
2021/11/23 10:48:41;;;;;;;11.93;7.05;;;;;;;;;;5072251;28;20056;-61
2021/11/23 10:51:12;;;;;;;11.52;5.38;;;;;;;;;;5059839;28;20065;-62
2021/11/23 10:53:42;;;;;;;8.77;5.90;;;;;;;;;;5065985;28;20492;-60
2021/11/23 10:56:11;;;;;;;6.70;4.40;;;;;;;;;;5069198;28;20064;-60
2021/11/23 10:58:38;;;;;;;15.57;7.10;;;;;;;;;;5070488;28;20045;-60
2021/11/23 11:01:09;;;;;;;12.05;5.85;;;;;;;;;;5073276;28;20049;-60
2021/11/23 11:03:36;;;;;;;10.88;6.63;;;;;;;;;;5070213;28;20052;-60
2021/11/23 11:06:05;;;;;;;8.43;4.78;;;;;;;;;;5072286;28;20063;-59
2021/11/23 11:08:34;;;;;;;14.95;7.57;;;;;;;;;;5071665;28;20518;-60
2021/11/23 11:11:01;;;;;;;11.48;7.20;;;;;;;;;;5056691;28;20080;-60
2021/11/23 11:13:28;;;;;;;10.02;6.30;;;;;;;;;;5072660;28;20044;-61
2021/11/23 11:15:59;;;;;;;15.73;7.32;;;;;;;;;;5060033;28;20041;-61
2021/11/23 11:18:26;;;;;;;13.65;6.47;;;;;;;;;;5067932;28;20469;-59
2021/11/23 11:20:58;;;;;;;9.60;5.28;;;;;;;;;;5072279;28;20036;-59
2021/11/23 11:23:28;;;;;;;13.02;5.90;;;;;;;;;;5072120;28;20049;-60
2021/11/23 11:26:10;;;;;;;8.55;5.03;;;;;;;;;;5055978;28;20090;-59
2021/11/23 11:28:42;;;;;;;14.27;7.90;;;;;;;;;;5069077;28;20759;-59
2021/11/23 11:31:25;;;;;;;8.27;4.53;;;;;;;;;;5056826;28;20107;-59
2021/11/23 11:33:51;;;;;;;13.18;6.20;;;;;;;;;;5060279;28;20084;-58
2021/11/23 11:36:37;;;;;;;15.38;7.93;;;;;;;;;;5067355;28;20087;-58
2021/11/23 11:39:04;;;;;;;23.90;6.10;;;;;;;;;;5067145;28;20130;-59
2021/11/23 11:41:34;;;;;;;14.50;8.48;;;;;;;;;;5068238;28;20065;-58
2021/11/23 11:44:08;;;;;;;25.73;10.23;;;;;;;;;;5056037;28;20055;-58
2021/11/23 11:46:36;;;;;;;10.52;5.78;;;;;;;;;;5068661;28;20052;-59
2021/11/23 11:49:03;;;;;;;8.52;5.80;;;;;;;;;;5067215;28;20044;-59
2021/11/23 11:51:33;;;;;;;17.27;9.85;;;;;;;;;;5066907;28;20049;-59
2021/11/23 11:54:04;;;;;;;15.15;7.40;;;;;;;;;;5066791;28;20515;-60
2021/11/23 11:56:38;;;;;;;14.07;7.40;;;;;;;;;;5067297;28;20049;-59
2021/11/23 11:59:24;;;;;;;14.02;8.10;;;;;;;;;;5070131;28;20087;-60
2021/11/23 12:02:05;;;;;;;11.82;4.97;;;;;;;;;;5070411;28;20045;-61
2021/11/23 12:04:33;;;;;;;9.98;4.50;;;;;;;;;;5068291;28;20099;-63
2021/11/23 12:07:06;;;;;;;7.05;4.82;;;;;;;;;;5066421;28;20056;-59
2021/11/23 12:09:32;;;;;;;13.82;7.35;;;;;;;;;;5066410;28;20559;-59
2021/11/23 12:12:11;;;;;;;16.33;7.10;;;;;;;;;;5067322;28;20041;-59
2021/11/23 12:14:54;;;;;;;16.67;8.93;;;;;;;;;;5056372;28;20049;-59
2021/11/23 12:17:37;;;;;;;28.88;14.85;;;;;;;;;;5067932;28;20508;-60
2021/11/23 12:20:08;;;;;;;30.42;13.73;;;;;;;;;;5055088;28;20518;-60
2021/11/23 12:22:42;;;;;;;12.55;6.35;;;;;;;;;;5068171;28;20476;-59
2021/11/23 12:25:11;;;;;;;26.50;13.40;;;;;;;;;;5069060;28;20511;-59
2021/11/23 12:27:42;;;;;;;11.85;6.15;;;;;;;;;;5066504;28;20048;-60
2021/11/23 12:30:09;;;;;;;18.67;8.30;;;;;;;;;;5066267;28;20404;-59
2021/11/23 12:32:36;;;;;;;15.25;8.38;;;;;;;;;;5066450;28;20562;-58
2021/11/23 12:35:03;;;;;;;14.43;8.88;;;;;;;;;;5070326;28;20504;-59
2021/11/23 12:37:38;;;;;;;15.23;8.23;;;;;;;;;;5067781;28;20044;-60
2021/11/23 12:40:16;;;;;;;18.90;9.43;;;;;;;;;;5067044;28;20072;-60
2021/11/23 12:42:53;;;;;;;19.92;9.73;;;;;;;;;;5066100;28;20071;-59
2021/11/23 12:45:22;;;;;;;21.30;11.38;;;;;;;;;;5066238;28;20126;-59
2021/11/23 12:47:50;;;;;;;19.42;10.60;;;;;;;;;;5066572;28;20516;-57
2021/11/23 12:50:17;;;;;;;13.48;6.88;;;;;;;;;;5070394;28;20059;-58
2021/11/23 12:52:44;;;;;;;19.88;8.77;;;;;;;;;;5054414;28;20080;-59
2021/11/23 12:55:13;;;;;;;11.20;6.80;;;;;;;;;;5067132;28;20063;-58
2021/11/23 12:57:39;;;;;;;17.90;11.02;;;;;;;;;;5057658;28;20099;-59
2021/11/23 13:00:07;;;;;;;12.63;6.57;;;;;;;;;;5056834;28;20045;-58
2021/11/23 13:02:37;;;;;;;23.20;13.82;;;;;;;;;;5056662;28;20056;-60
2021/11/23 13:05:06;;;;;;;14.55;8.60;;;;;;;;;;5052632;28;20049;-58
2021/11/23 13:07:34;;;;;;;11.25;6.30;;;;;;;;;;5054297;28;20053;-60
2021/11/23 13:10:03;;;;;;;20.17;9.93;;;;;;;;;;5057391;28;20049;-60
2021/11/23 13:12:32;;;;;;;19.38;9.50;;;;;;;;;;5060895;28;20049;-59
2021/11/23 13:15:02;;;;;;;24.98;9.60;;;;;;;;;;5067805;28;20052;-60
2021/11/23 13:17:35;;;;;;;18.45;9.48;;;;;;;;;;5069933;28;20057;-59
2021/11/23 13:20:02;;;;;;;17.05;9.88;;;;;;;;;;5056062;28;20041;-59
2021/11/23 13:22:36;;;;;;;6.78;5.03;;;;;;;;;;5053705;28;20144;-59
2021/11/23 13:25:02;;;;;;;28.02;11.98;;;;;;;;;;5053604;28;20554;-59
2021/11/23 13:27:31;;;;;;;24.08;10.18;;;;;;;;;;5053685;28;20542;-59
2021/11/23 13:30:00;;;;;;;22.67;11.00;;;;;;;;;;5054717;28;20060;-59
2021/11/23 13:32:27;;;;;;;26.42;12.55;;;;;;;;;;5062805;28;20436;-58
2021/11/23 13:35:09;;;;;;;26.17;12.02;;;;;;;;;;5068954;28;20068;-59
2021/11/23 13:37:39;;;;;;;26.20;11.80;;;;;;;;;;5071964;28;20078;-59
2021/11/23 13:40:19;;;;;;;15.90;7.57;;;;;;;;;;5070887;28;20044;-60
2021/11/23 13:42:46;;;;;;;17.40;9.10;;;;;;;;;;5069324;28;20549;-59
2021/11/23 13:45:22;;;;;;;17.60;10.23;;;;;;;;;;5069251;28;20053;-59
2021/11/23 13:47:50;;;;;;;21.15;11.43;;;;;;;;;;5069336;28;20049;-59
2021/11/23 13:50:18;;;;;;;21.27;9.93;;;;;;;;;;5069127;28;20049;-59
2021/11/23 13:52:52;;;;;;;24.38;12.02;;;;;;;;;;5070441;28;20040;-59
2021/11/23 13:55:28;;;;;;;31.50;11.80;;;;;;;;;;5070711;28;20052;-59
2021/11/23 13:57:54;;;;;;;17.48;8.25;;;;;;;;;;5068072;28;20066;-59
2021/11/23 14:00:28;;;;;;;24.67;13.05;;;;;;;;;;5068189;28;20076;-59
2021/11/23 14:02:55;;;;;;;11.18;5.22;;;;;;;;;;5068619;28;20060;-59
2021/11/23 14:05:40;;;;;;;32.75;14.05;;;;;;;;;;5067933;28;20037;-59
2021/11/23 14:08:08;;;;;;;26.13;12.55;;;;;;;;;;5057666;28;20045;-59
2021/11/23 14:10:39;;;;;;;14.90;7.07;;;;;;;;;;5071224;28;20080;-59
2021/11/23 14:13:12;;;;;;;14.63;7.75;;;;;;;;;;5070131;28;20087;-59
2021/11/23 14:15:43;;;;;;;30.63;13.30;;;;;;;;;;5070523;28;20056;-59
2021/11/23 14:18:10;;;;;;;14.95;8.52;;;;;;;;;;5068064;28;20052;-59
2021/11/23 14:20:46;;;;;;;24.63;11.27;;;;;;;;;;5067987;28;20071;-59
2021/11/23 14:23:15;;;;;;;20.33;9.43;;;;;;;;;;5070124;28;20044;-59
2021/11/23 14:25:47;;;;;;;10.85;7.53;;;;;;;;;;5069852;28;20052;-59
2021/11/23 14:28:14;;;;;;;17.65;7.53;;;;;;;;;;5066431;28;20068;-59
2021/11/23 14:30:42;;;;;;;28.70;13.43;;;;;;;;;;5069382;28;20053;-59
2021/11/23 14:33:09;;;;;;;23.38;11.43;;;;;;;;;;5063227;28;20064;-59
2021/11/23 14:35:35;;;;;;;8.75;5.72;;;;;;;;;;5068403;28;20079;-59
2021/11/23 14:38:02;;;;;;;26.00;12.02;;;;;;;;;;5069520;28;20060;-56